Time;durP1;ratioP1;P1;durP2;ratioP2;P2;SDS_P1;SDS_P2;PMS_P1;PMS_P2;Temp;Humidity;BMP_temperature;BMP_pressure;BME280_temperature;BME280_humidity;BME280_pressure;Samples;Min_cycle;Max_cycle;Signal;HPM_P1;HPM_P2
2021/11/18 00:00:53;;;;;;;18.05;9.50;;;;;;;2.80;64.52;100560.47;5013863;28;20057;-84
2021/11/18 00:03:20;;;;;;;16.90;9.43;;;;;;;2.82;64.46;100567.44;5021389;28;20128;-82
2021/11/18 00:05:47;;;;;;;18.73;9.50;;;;;;;2.18;64.93;100452.97;5035428;28;21117;-83
2021/11/18 00:08:13;;;;;;;16.77;9.35;;;;;;;2.48;64.60;100488.28;5022753;28;20030;-83
2021/11/18 00:10:45;;;;;;;18.60;9.85;;;;;;;2.90;64.55;100549.69;5023428;28;20049;-82
2021/11/18 00:13:14;;;;;;;17.25;9.20;;;;;;;2.44;64.64;100464.16;5019072;28;20042;-81
2021/11/18 00:15:42;;;;;;;17.60;9.45;;;;;;;2.83;65.01;100530.63;5019070;28;20514;-81
2021/11/18 00:18:18;;;;;;;19.23;9.18;;;;;;;2.98;64.84;100552.53;5019108;28;20049;-82
2021/11/18 00:20:59;;;;;;;17.88;9.07;;;;;;;2.96;64.18;100554.16;5006301;28;20516;-80
2021/11/18 00:23:29;;;;;;;20.38;9.63;;;;;;;1.89;64.57;100383.47;5019950;28;20104;-79
2021/11/18 00:25:56;;;;;;;17.17;9.07;;;;;;;2.37;64.95;100459.63;5005400;28;20418;-79
2021/11/18 00:28:22;;;;;;;16.35;9.20;;;;;;;2.91;64.73;100550.56;5022272;28;20037;-80
2021/11/18 00:30:48;;;;;;;18.25;9.70;;;;;;;2.56;64.61;100481.69;5010140;28;20045;-80
2021/11/18 00:33:15;;;;;;;18.95;9.25;;;;;;;2.09;64.58;100394.47;5016781;28;20057;-80
2021/11/18 00:35:46;;;;;;;23.07;10.00;;;;;;;2.57;64.60;100496.28;5008182;28;20053;-83
2021/11/18 00:38:12;;;;;;;19.35;9.15;;;;;;;2.89;64.65;100542.78;5018463;28;20089;-78
2021/11/18 00:40:41;;;;;;;25.55;9.98;;;;;;;2.89;64.67;100537.66;5016444;28;20077;-83
2021/11/18 00:43:09;;;;;;;20.67;8.82;;;;;;;2.16;64.23;100422.09;5008752;28;20152;-82
2021/11/18 00:45:36;;;;;;;19.13;9.32;;;;;;;2.47;64.37;100494.22;5023391;28;20046;-82
2021/11/18 00:48:03;;;;;;;18.10;9.15;;;;;;;2.17;64.89;100453.78;5026992;28;20042;-83
2021/11/18 00:50:37;;;;;;;18.33;9.25;;;;;;;2.41;64.79;100477.78;5005922;28;20046;-79
2021/11/18 00:53:03;;;;;;;20.60;9.55;;;;;;;2.32;64.79;100466.31;5034661;28;20042;-81
2021/11/18 00:55:30;;;;;;;17.77;8.50;;;;;;;2.74;64.37;100532.00;5024977;28;20044;-82
2021/11/18 00:57:58;;;;;;;16.75;7.95;;;;;;;2.66;64.94;100512.03;5035557;28;20046;-81
2021/11/18 01:00:30;;;;;;;14.07;7.25;;;;;;;2.28;64.12;100449.03;5001961;28;20374;-81
2021/11/18 01:02:58;;;;;;;19.98;8.55;;;;;;;2.52;64.35;100521.81;5009498;28;20048;-82
2021/11/18 01:05:28;;;;;;;17.88;8.23;;;;;;;2.39;64.23;100497.38;5043911;28;20041;-81
2021/11/18 01:07:56;;;;;;;15.15;8.48;;;;;;;2.51;64.82;100503.81;5021727;28;20101;-79
2021/11/18 01:10:24;;;;;;;18.55;8.93;;;;;;;2.53;65.00;100507.31;5023504;28;20048;-81
2021/11/18 01:12:50;;;;;;;17.60;8.73;;;;;;;2.30;64.79;100467.94;5020765;28;20037;-81
2021/11/18 01:15:20;;;;;;;16.90;8.45;;;;;;;2.55;64.64;100503.06;5024422;28;20045;-81
2021/11/18 01:17:46;;;;;;;20.80;9.15;;;;;;;2.49;64.19;100500.28;5032260;28;20045;-82
2021/11/18 01:20:14;;;;;;;15.52;8.30;;;;;;;2.04;64.72;100421.66;5002406;28;20034;-83
2021/11/18 01:22:41;;;;;;;16.38;8.88;;;;;;;2.20;64.32;100453.91;5007179;28;20139;-83
2021/11/18 01:25:09;;;;;;;18.63;8.40;;;;;;;2.47;64.57;100494.22;4995768;28;20048;-84
2021/11/18 01:27:43;;;;;;;16.95;8.63;;;;;;;2.45;64.83;100495.88;5002620;28;20037;-82
2021/11/18 01:30:22;;;;;;;17.27;8.45;;;;;;;2.08;64.92;100433.78;5018294;28;20040;-81
2021/11/18 01:32:51;;;;;;;18.75;7.93;;;;;;;2.32;64.47;100458.59;5019595;28;20037;-81
2021/11/18 01:35:23;;;;;;;13.65;7.43;;;;;;;2.49;64.34;100488.31;5010582;28;20041;-81
2021/11/18 01:37:48;;;;;;;18.38;8.10;;;;;;;1.92;64.54;100389.59;4989480;28;20612;-82
2021/11/18 01:40:19;;;;;;;15.02;6.97;;;;;;;2.41;64.33;100459.78;5008077;28;20068;-82
2021/11/18 01:42:49;;;;;;;17.20;7.82;;;;;;;2.45;64.22;100459.91;5010552;28;20041;-79
2021/11/18 01:45:17;;;;;;;15.93;7.68;;;;;;;2.30;63.89;100429.41;5008894;28;20603;-80
2021/11/18 01:47:45;;;;;;;13.57;6.43;;;;;;;2.51;63.49;100468.69;5025688;28;20053;-81
2021/11/18 01:50:18;;;;;;;13.98;6.63;;;;;;;2.09;63.80;100412.44;5005598;28;20556;-82
2021/11/18 01:52:46;;;;;;;12.68;6.63;;;;;;;1.89;64.22;100401.44;5018316;28;20041;-80
2021/11/18 01:55:12;;;;;;;12.95;6.40;;;;;;;2.41;63.26;100488.03;5014640;28;20135;-83
2021/11/18 01:57:39;;;;;;;12.45;6.03;;;;;;;2.24;63.53;100468.59;5003206;28;20046;-79
2021/11/18 02:00:36;;;;;;;13.73;5.93;;;;;;;1.91;63.49;100418.66;5017771;28;20033;-80
2021/11/18 02:03:03;;;;;;;12.23;6.03;;;;;;;2.21;63.50;100491.59;5004563;28;20102;-80
2021/11/18 02:05:57;;;;;;;11.90;5.63;;;;;;;1.71;63.28;100427.31;5013108;28;20046;-81
2021/11/18 02:08:23;;;;;;;11.90;5.82;;;;;;;1.38;63.06;100376.50;4989534;28;20069;-81
2021/11/18 02:11:21;;;;;;;10.70;5.90;;;;;;;1.48;62.85;100402.53;5023924;28;20155;-79
2021/11/18 02:13:48;;;;;;;12.02;6.00;;;;;;;1.91;63.16;100480.28;5023349;28;20051;-81
2021/11/18 02:16:16;;;;;;;12.25;6.72;;;;;;;1.42;63.03;100404.91;5035035;28;20072;-82
2021/11/18 02:18:42;;;;;;;10.60;6.00;;;;;;;1.58;62.85;100424.28;5027277;28;20072;-80
2021/11/18 02:21:12;;;;;;;10.23;5.68;;;;;;;1.90;62.37;100473.38;5026414;28;20052;-82
2021/11/18 02:24:01;;;;;;;11.02;5.97;;;;;;;1.79;62.25;100472.97;5019733;28;20041;-81
2021/11/18 02:26:28;;;;;;;11.40;6.47;;;;;;;1.47;62.49;100440.97;5021645;28;20487;-84
2021/11/18 02:28:59;;;;;;;15.40;6.63;;;;;;;1.70;62.66;100464.94;5021103;28;20508;-82
2021/11/18 02:31:31;;;;;;;14.90;6.57;;;;;;;1.23;62.46;100397.28;5021338;28;20463;-81
2021/11/18 02:34:00;;;;;;;13.15;5.90;;;;;;;1.56;62.34;100440.44;5027729;28;20045;-82
2021/11/18 02:36:27;;;;;;;11.63;6.25;;;;;;;1.12;62.55;100377.25;5027311;28;20051;-83
2021/11/18 02:38:53;;;;;;;12.48;6.43;;;;;;;1.32;62.24;100395.09;5035440;28;20056;-80
2021/11/18 02:41:22;;;;;;;12.85;6.18;;;;;;;1.61;61.66;100451.75;5039914;28;20076;-82
2021/11/18 02:43:49;;;;;;;15.23;6.97;;;;;;;1.70;62.23;100472.63;5037245;28;20416;-82
2021/11/18 02:46:16;;;;;;;12.13;6.25;;;;;;;1.50;62.25;100425.72;5022832;28;20069;-81
2021/11/18 02:48:42;;;;;;;12.52;5.93;;;;;;;1.34;61.24;100389.19;5007952;28;20111;-79
2021/11/18 02:51:12;;;;;;;11.93;5.88;;;;;;;1.35;61.27;100406.31;5003941;28;20077;-83
2021/11/18 02:53:39;;;;;;;13.15;5.78;;;;;;;1.10;61.82;100353.25;5012739;28;20627;-81
2021/11/18 02:56:06;;;;;;;11.18;5.63;;;;;;;1.28;61.55;100385.53;5009689;28;20049;-82
2021/11/18 02:58:39;;;;;;;13.30;6.10;;;;;;;1.47;61.59;100416.19;5039606;28;20083;-82
2021/11/18 03:01:19;;;;;;;11.07;5.60;;;;;;;1.68;60.66;100445.16;5037586;28;20057;-84
2021/11/18 03:03:45;;;;;;;11.93;5.65;;;;;;;1.67;60.79;100441.72;5036594;28;20395;-80
2021/11/18 03:06:11;;;;;;;11.32;6.32;;;;;;;1.63;60.51;100447.56;5023996;28;20038;-80
2021/11/18 03:08:37;;;;;;;9.95;5.65;;;;;;;1.52;61.09;100416.38;5035823;28;20048;-79
2021/11/18 03:11:06;;;;;;;11.23;5.85;;;;;;;1.30;60.63;100383.91;5036533;28;20054;-81
2021/11/18 03:13:32;;;;;;;14.30;6.88;;;;;;;1.63;60.70;100439.88;5024467;28;20038;-84
2021/11/18 03:16:05;;;;;;;;;;;;;;;1.49;60.85;100442.78;5025509;28;20049;-82
2021/11/18 03:18:31;;;;;;;10.70;5.47;;;;;;;1.42;60.58;100443.38;5023926;28;19980;-82
2021/11/18 03:21:00;;;;;;;15.35;6.88;;;;;;;0.74;60.28;100330.50;5016988;28;20037;-80
2021/11/18 03:23:27;;;;;;;14.70;6.20;;;;;;;0.72;60.21;100333.00;5040248;28;20041;-81
2021/11/18 03:25:55;;;;;;;11.82;6.10;;;;;;;0.74;60.30;100317.69;5025332;28;20504;-83
2021/11/18 03:28:27;;;;;;;12.20;6.18;;;;;;;1.06;60.44;100374.44;5008305;28;20037;-82
2021/11/18 03:30:55;;;;;;;14.20;5.85;;;;;;;1.22;60.40;100399.00;5009247;28;20041;-83
2021/11/18 03:33:28;;;;;;;13.93;6.25;;;;;;;1.30;60.67;100424.94;5022502;28;20050;-82
2021/11/18 03:35:55;;;;;;;12.75;5.95;;;;;;;0.95;60.51;100371.47;5023757;28;20128;-83
2021/11/18 03:38:25;;;;;;;12.65;6.47;;;;;;;1.20;60.60;100416.00;5008990;28;20045;-81
2021/11/18 03:41:04;;;;;;;14.43;6.65;;;;;;;0.77;60.29;100347.69;5023027;28;20508;-81
2021/11/18 03:43:35;;;;;;;15.63;6.50;;;;;;;1.29;60.45;100420.59;5005542;28;20724;-83
2021/11/18 03:46:02;;;;;;;15.77;7.07;;;;;;;0.77;60.33;100324.63;5023748;28;20049;-80
2021/11/18 03:48:33;;;;;;;16.75;6.95;;;;;;;0.95;60.19;100350.97;5004248;28;20073;-82
2021/11/18 03:51:32;;;;;;;13.18;6.43;;;;;;;1.22;60.06;100413.50;5029601;28;20418;-82
2021/11/18 03:54:07;;;;;;;12.73;6.72;;;;;;;0.74;60.30;100333.06;5032310;28;20096;-82
2021/11/18 03:56:40;;;;;;;15.63;6.65;;;;;;;0.73;59.73;100313.38;5032462;28;20059;-81
2021/11/18 03:59:35;;;;;;;17.00;7.63;;;;;;;1.27;59.43;100410.31;5000006;28;20042;-83
2021/11/18 04:02:06;;;;;;;15.30;6.68;;;;;;;0.49;59.34;100306.47;5045104;28;20125;-80
2021/11/18 04:05:02;;;;;;;15.82;7.43;;;;;;;1.04;59.90;100384.66;5035143;28;20084;-81
2021/11/18 04:08:01;;;;;;;17.60;7.32;;;;;;;0.60;59.78;100327.41;4973256;28;20315;-83
2021/11/18 04:10:30;;;;;;;15.00;6.82;;;;;;;0.14;59.77;100250.47;4965938;28;20738;-85
2021/11/18 04:12:57;;;;;;;15.38;7.22;;;;;;;0.92;59.90;100367.91;4985172;28;20070;-82
2021/11/18 04:15:33;;;;;;;16.67;7.63;;;;;;;1.09;59.96;100387.38;4980653;28;20058;-83
2021/11/18 04:18:47;;;;;;;15.15;7.38;;;;;;;1.10;59.78;100389.13;4975543;28;20660;-82
2021/11/18 04:21:13;;;;;;;17.08;7.60;;;;;;;0.35;59.51;100276.84;4974794;28;20059;-80
2021/11/18 04:23:41;;;;;;;15.98;7.97;;;;;;;0.56;59.76;100323.81;4958392;28;20051;-81
2021/11/18 04:26:25;;;;;;;14.60;7.30;;;;;;;0.55;59.57;100329.75;4961878;28;20042;-81
2021/11/18 04:29:08;;;;;;;23.65;7.75;;;;;;;0.91;59.57;100372.16;5016586;28;20049;-81
2021/11/18 04:31:58;;;;;;;17.20;7.55;;;;;;;0.46;59.87;100303.78;5004201;28;20053;-81
2021/11/18 04:34:24;;;;;;;18.20;7.72;;;;;;;0.21;60.04;100282.31;5006812;28;20045;-83
2021/11/18 04:36:50;;;;;;;17.17;8.23;;;;;;;0.61;59.69;100339.38;4994950;28;20049;-81
2021/11/18 04:39:17;;;;;;;17.23;8.35;;;;;;;0.63;59.14;100350.56;5026718;28;20128;-81
2021/11/18 04:41:43;;;;;;;16.52;8.30;;;;;;;0.40;59.84;100313.78;5016142;28;20195;-83
2021/11/18 04:44:11;;;;;;;17.63;8.02;;;;;;;0.24;59.98;100297.78;5024129;28;20058;-81
2021/11/18 04:46:37;;;;;;;17.02;8.32;;;;;;;0.27;59.20;100304.72;5028512;28;20026;-81
2021/11/18 04:49:05;;;;;;;18.83;8.57;;;;;;;0.28;59.73;100285.97;5036898;28;20045;-81
2021/11/18 04:51:33;;;;;;;17.55;8.32;;;;;;;0.24;59.85;100287.56;5034113;28;20455;-80
2021/11/18 04:54:00;;;;;;;16.40;8.40;;;;;;;0.71;59.81;100354.31;5013513;28;20053;-81
2021/11/18 04:56:30;;;;;;;16.70;8.35;;;;;;;0.41;59.55;100284.78;5024818;28;20128;-80
2021/11/18 04:58:57;;;;;;;20.38;8.27;;;;;;;0.47;59.64;100287.59;5022791;28;20103;-81
2021/11/18 05:01:25;;;;;;;16.35;7.95;;;;;;;0.97;59.85;100354.47;5035269;28;20045;-80
2021/11/18 05:03:51;;;;;;;18.95;7.85;;;;;;;0.97;59.82;100361.28;5007316;28;20421;-82
2021/11/18 05:06:19;;;;;;;16.10;7.65;;;;;;;0.83;59.90;100328.28;5024020;28;20501;-81
2021/11/18 05:08:45;;;;;;;12.35;6.70;;;;;;;0.57;59.41;100305.06;5033282;28;20062;-82
2021/11/18 05:11:11;;;;;;;13.52;7.75;;;;;;;0.29;59.24;100262.13;5008234;28;20053;-82
2021/11/18 05:13:38;;;;;;;13.43;7.35;;;;;;;0.09;59.19;100226.38;5018142;28;20053;-80
2021/11/18 05:16:11;;;;;;;13.75;7.70;;;;;;;0.78;59.18;100346.88;5007828;28;20086;-82
2021/11/18 05:18:38;;;;;;;15.40;7.82;;;;;;;0.71;59.48;100325.25;5010625;28;20068;-82
2021/11/18 05:21:08;;;;;;;14.80;7.55;;;;;;;0.58;59.27;100296.59;5010556;28;20099;-82
2021/11/18 05:23:35;;;;;;;18.58;8.15;;;;;;;0.27;59.72;100251.84;5052968;28;20092;-79
2021/11/18 05:26:02;;;;;;;18.58;7.70;;;;;;;0.03;59.57;100230.38;5001321;28;20042;-81
2021/11/18 05:28:29;;;;;;;16.20;8.73;;;;;;;0.64;59.39;100346.31;5005439;28;20145;-81
2021/11/18 05:30:56;;;;;;;16.85;9.18;;;;;;;0.31;59.07;100291.22;5021206;28;20108;-78
2021/11/18 05:33:24;;;;;;;18.70;9.82;;;;;;;0.41;58.99;100308.72;5017253;28;20050;-81
2021/11/18 05:35:50;;;;;;;18.50;9.20;;;;;;;0.06;59.20;100264.63;5017668;28;20632;-81
2021/11/18 05:38:18;;;;;;;18.23;9.40;;;;;;;0.55;59.61;100332.31;5026219;28;20510;-78
2021/11/18 05:40:47;;;;;;;20.27;10.25;;;;;;;0.24;58.82;100276.44;5033700;28;20413;-80
2021/11/18 05:43:18;;;;;;;22.77;11.07;;;;;;;0.57;59.54;100338.38;5023095;28;20041;-82
2021/11/18 05:45:45;;;;;;;25.42;10.63;;;;;;;0.31;59.19;100300.63;5025886;28;20037;-80
2021/11/18 05:48:15;;;;;;;25.73;11.30;;;;;;;0.10;59.09;100284.44;5022505;28;20050;-79
2021/11/18 05:50:49;;;;;;;22.05;11.25;;;;;;;0.11;58.87;100298.13;5023516;28;20068;-79
2021/11/18 05:53:23;;;;;;;27.48;11.52;;;;;;;0.07;59.65;100288.56;5027805;28;20567;-79
2021/11/18 05:55:51;;;;;;;26.52;10.98;;;;;;;0.28;59.13;100322.72;5021282;28;20107;-80
2021/11/18 05:58:17;;;;;;;27.45;12.13;;;;;;;0.03;59.01;100277.28;5025618;28;20052;-82
2021/11/18 06:00:43;;;;;;;29.98;12.07;;;;;;;0.23;59.38;100324.22;5007185;28;20041;-79
2021/11/18 06:03:09;;;;;;;27.20;12.10;;;;;;;-0.44;58.59;100214.81;4994314;28;20037;-80
2021/11/18 06:05:38;;;;;;;30.48;13.30;;;;;;;-0.21;59.37;100277.16;5036931;28;20033;-79
2021/11/18 06:08:04;;;;;;;28.45;12.07;;;;;;;0.15;59.13;100328.13;5014451;28;20555;-83
2021/11/18 06:10:33;;;;;;;29.15;13.07;;;;;;;-0.21;59.24;100259.25;5010917;28;20109;-80
2021/11/18 06:13:00;;;;;;;30.17;12.77;;;;;;;-0.01;58.62;100303.59;5013020;28;20042;-82
2021/11/18 06:15:36;;;;;;;27.65;11.68;;;;;;;-0.32;59.52;100275.00;5021189;28;20481;-82
2021/11/18 06:18:04;;;;;;;31.48;12.27;;;;;;;-0.61;59.23;100251.63;5028433;28;20042;-84
2021/11/18 06:20:31;;;;;;;29.25;12.40;;;;;;;-0.23;59.69;100306.91;5034430;28;20038;-78
2021/11/18 06:22:57;;;;;;;31.05;13.32;;;;;;;-0.13;59.62;100326.97;5018217;28;20065;-78
2021/11/18 06:25:27;;;;;;;34.58;13.05;;;;;;;-0.17;59.85;100328.50;5019531;28;20536;-78
2021/11/18 06:27:53;;;;;;;29.15;12.00;;;;;;;-0.21;59.46;100329.19;5009242;28;20029;-78
2021/11/18 06:30:29;;;;;;;30.30;11.85;;;;;;;-0.29;59.05;100319.44;5008622;28;20045;-81
2021/11/18 06:32:56;;;;;;;31.50;13.05;;;;;;;-0.24;59.69;100313.72;5025708;28;20126;-79
2021/11/18 06:35:26;;;;;;;25.75;12.25;;;;;;;-0.62;59.32;100247.31;5006072;28;20120;-79
2021/11/18 06:37:54;;;;;;;27.30;11.25;;;;;;;-0.35;59.30;100307.25;5003208;28;20103;-78
2021/11/18 06:40:24;;;;;;;26.42;11.52;;;;;;;-0.39;59.78;100307.94;5025980;28;20041;-81
2021/11/18 06:42:50;;;;;;;28.83;11.75;;;;;;;-0.51;58.89;100292.91;5021610;28;20056;-79
2021/11/18 06:45:27;;;;;;;26.27;11.68;;;;;;;-0.62;59.69;100277.09;5017213;28;20026;-78
2021/11/18 06:48:05;;;;;;;25.52;11.30;;;;;;;-0.48;60.17;100311.84;5009774;28;20054;-81
2021/11/18 06:50:33;;;;;;;26.83;11.68;;;;;;;-0.41;59.25;100287.41;5026659;28;20041;-80
2021/11/18 06:53:03;;;;;;;22.92;11.27;;;;;;;-0.54;59.30;100255.31;5028564;28;20072;-80
2021/11/18 06:55:29;;;;;;;33.45;11.60;;;;;;;-0.38;59.61;100300.34;5025183;28;20075;-77
2021/11/18 06:57:55;;;;;;;27.55;11.57;;;;;;;-0.48;59.02;100254.69;5012098;28;20037;-78
2021/11/18 07:00:25;;;;;;;24.70;11.75;;;;;;;-0.47;59.45;100265.00;5031413;28;20421;-78
2021/11/18 07:02:52;;;;;;;27.20;11.25;;;;;;;-0.40;58.97;100284.06;5023829;28;20053;-80
2021/11/18 07:05:20;;;;;;;26.77;11.13;;;;;;;-0.40;59.42;100266.16;5016366;28;20487;-79
2021/11/18 07:07:46;;;;;;;24.73;10.25;;;;;;;-0.40;59.55;100250.81;5027159;28;20049;-80
2021/11/18 07:10:18;;;;;;;25.27;11.18;;;;;;;-0.18;59.91;100269.63;5028818;28;20041;-80
2021/11/18 07:12:55;;;;;;;23.75;10.77;;;;;;;-0.03;58.69;100285.59;5009801;28;20556;-80
2021/11/18 07:15:24;;;;;;;30.77;11.70;;;;;;;-0.14;58.71;100260.38;5041999;28;20041;-79
2021/11/18 07:17:51;;;;;;;26.55;11.38;;;;;;;-0.19;59.37;100257.63;5004620;28;20045;-79
2021/11/18 07:20:20;;;;;;;32.08;10.82;;;;;;;-0.36;58.84;100226.22;5022228;28;20045;-80
2021/11/18 07:22:47;;;;;;;28.77;11.45;;;;;;;-0.09;58.95;100281.91;5015148;28;20563;-79
2021/11/18 07:25:27;;;;;;;27.00;11.15;;;;;;;-0.16;58.86;100270.56;5024932;28;20444;-79
2021/11/18 07:27:56;;;;;;;26.60;11.52;;;;;;;-0.13;59.51;100259.56;4995754;28;20029;-78
2021/11/18 07:30:24;;;;;;;27.75;11.85;;;;;;;-0.13;59.72;100252.78;5022764;28;20444;-79
2021/11/18 07:32:51;;;;;;;25.20;11.20;;;;;;;-0.03;59.00;100265.13;5024915;28;20045;-79
2021/11/18 07:35:34;;;;;;;27.15;10.63;;;;;;;-0.26;59.55;100219.81;4999827;28;20478;-81
2021/11/18 07:38:03;;;;;;;25.50;10.70;;;;;;;-0.05;59.27;100243.72;5036178;28;20103;-80
2021/11/18 07:40:42;;;;;;;26.38;11.30;;;;;;;0.13;59.26;100282.00;5025913;28;20045;-78
2021/11/18 07:43:38;;;;;;;23.80;10.85;;;;;;;0.10;59.22;100240.91;5040600;28;20179;-80
2021/11/18 07:46:30;;;;;;;24.90;10.55;;;;;;;0.07;59.47;100243.34;5017003;28;20038;-82
2021/11/18 07:49:03;;;;;;;24.15;11.30;;;;;;;0.27;59.27;100253.50;5031315;28;20054;-82
2021/11/18 07:51:39;;;;;;;28.27;11.93;;;;;;;0.34;59.12;100262.31;5034685;28;20053;-84
2021/11/18 07:54:11;;;;;;;26.10;11.55;;;;;;;0.40;58.76;100239.53;5017475;28;20037;-84
2021/11/18 07:56:37;;;;;;;26.38;11.70;;;;;;;0.03;58.65;100185.16;5032779;28;20033;-83
2021/11/18 07:59:05;;;;;;;27.33;10.13;;;;;;;0.21;59.05;100200.41;5024176;28;20083;-85
2021/11/18 08:01:39;;;;;;;27.35;11.23;;;;;;;-0.25;58.74;100121.78;5022101;28;20040;-85
2021/11/18 08:04:11;;;;;;;23.17;10.60;;;;;;;0.11;59.24;100175.25;5024123;28;20803;-83
2021/11/18 08:06:45;;;;;;;25.88;10.63;;;;;;;-0.65;58.49;100055.47;5030635;28;20014;-82
2021/11/18 08:09:14;;;;;;;22.65;9.93;;;;;;;0.03;59.20;100144.22;5036529;28;20042;-82
2021/11/18 08:11:52;;;;;;;26.75;10.95;;;;;;;-0.51;58.76;100063.69;5020341;28;20114;-82
2021/11/18 08:14:25;;;;;;;25.30;12.23;;;;;;;-0.16;58.36;100128.16;5020771;28;20033;-82
2021/11/18 08:16:57;;;;;;;29.40;10.80;;;;;;;0.53;59.09;100223.84;5028365;28;20561;-84
2021/11/18 08:19:26;;;;;;;23.85;10.05;;;;;;;0.00;58.29;100108.31;5029500;28;20037;-82
2021/11/18 08:21:56;;;;;;;25.85;10.77;;;;;;;0.43;58.19;100191.00;5041208;28;20118;-82
2021/11/18 08:24:28;;;;;;;22.75;10.43;;;;;;;0.39;58.24;100173.75;5031426;28;20489;-86
2021/11/18 08:26:56;;;;;;;28.13;11.80;;;;;;;0.25;57.98;100117.78;5028112;28;20041;-79
2021/11/18 08:29:24;;;;;;;29.33;11.43;;;;;;;0.90;58.19;100221.75;5029916;28;20033;-81
2021/11/18 08:31:55;;;;;;;26.73;11.30;;;;;;;0.84;57.91;100181.41;5024744;28;20037;-84
2021/11/18 08:34:22;;;;;;;24.35;10.32;;;;;;;0.89;57.91;100168.75;5029878;28;20198;-81
2021/11/18 08:36:50;;;;;;;25.17;10.50;;;;;;;0.90;57.22;100186.78;5016758;28;20041;-83
2021/11/18 08:39:19;;;;;;;21.60;10.13;;;;;;;1.00;57.15;100205.91;5023165;28;20037;-82
2021/11/18 08:41:53;;;;;;;24.08;10.43;;;;;;;-0.18;57.07;100030.00;5030123;28;20075;-80
2021/11/18 08:44:22;;;;;;;25.00;10.52;;;;;;;0.36;57.77;100133.56;5040343;28;20037;-81
2021/11/18 08:46:50;;;;;;;23.85;10.93;;;;;;;0.09;58.03;100077.94;5017153;28;20063;-84
2021/11/18 08:49:21;;;;;;;22.60;10.77;;;;;;;0.53;57.36;100151.22;5044314;28;20105;-83
2021/11/18 08:51:49;;;;;;;23.05;10.93;;;;;;;0.58;57.41;100132.66;5059417;28;20049;-81
2021/11/18 08:54:20;;;;;;;24.88;11.35;;;;;;;1.08;57.27;100185.69;5045045;28;20080;-82
2021/11/18 08:56:59;;;;;;;21.88;11.27;;;;;;;1.19;57.53;100192.09;5043814;28;20028;-80
2021/11/18 08:59:28;;;;;;;21.48;9.57;;;;;;;1.01;56.82;100119.63;5021513;28;20045;-82
2021/11/18 09:02:12;;;;;;;24.45;9.98;;;;;;;1.26;56.50;100176.91;5048027;28;20032;-80
2021/11/18 09:04:39;;;;;;;24.05;10.15;;;;;;;0.84;55.80;100119.06;5021400;28;20067;-82
2021/11/18 09:07:05;;;;;;;24.02;9.65;;;;;;;0.33;56.11;99999.44;5007508;28;20025;-82
2021/11/18 09:09:32;;;;;;;17.70;9.40;;;;;;;1.44;55.77;100167.25;5029812;28;20036;-81
2021/11/18 09:11:59;;;;;;;21.15;10.50;;;;;;;1.55;56.03;100152.22;5055727;28;20041;-81
2021/11/18 09:14:28;;;;;;;19.95;10.25;;;;;;;1.47;55.18;100123.78;5024290;28;20036;-80
2021/11/18 09:16:54;;;;;;;22.38;9.25;;;;;;;1.82;55.08;100150.53;5042607;28;20041;-81
2021/11/18 09:19:32;;;;;;;24.80;11.23;;;;;;;1.56;54.89;100086.44;5026394;28;20041;-82
2021/11/18 09:22:00;;;;;;;28.70;9.95;;;;;;;1.68;54.47;100116.75;5026573;28;20045;-81
2021/11/18 09:24:39;;;;;;;23.52;11.20;;;;;;;1.74;54.28;100122.94;5039471;28;20060;-80
2021/11/18 09:27:10;;;;;;;22.48;10.02;;;;;;;1.35;53.83;100070.38;5035108;28;20085;-80
2021/11/18 09:29:36;;;;;;;21.92;10.70;;;;;;;1.44;53.88;100095.44;5037691;28;20057;-82
2021/11/18 09:32:20;;;;;;;20.75;10.18;;;;;;;1.73;53.89;100131.44;5004268;28;20052;-82
2021/11/18 09:34:57;;;;;;;21.92;10.70;;;;;;;1.33;53.16;100055.78;5026592;28;20049;-80
2021/11/18 09:37:24;;;;;;;23.83;10.38;;;;;;;0.98;53.30;100007.66;5015138;28;20065;-81
2021/11/18 09:39:51;;;;;;;21.58;10.00;;;;;;;1.29;53.48;100056.50;5013484;28;20104;-83
2021/11/18 09:42:23;;;;;;;21.35;10.57;;;;;;;1.26;53.05;100049.56;5034459;28;20053;-82
2021/11/18 09:45:13;;;;;;;25.88;11.85;;;;;;;1.44;52.70;100108.28;5027351;28;20041;-79
2021/11/18 09:48:05;;;;;;;26.38;10.65;;;;;;;1.50;53.11;100113.63;5035178;28;20167;-80
2021/11/18 09:51:19;;;;;;;22.30;10.02;;;;;;;1.47;52.70;100118.63;5026021;28;20044;-80
2021/11/18 09:54:36;;;;;;;21.40;10.00;;;;;;;0.90;52.66;100025.34;4961284;28;20130;-80
2021/11/18 09:57:55;;;;;;;20.67;10.32;;;;;;;1.01;52.59;100063.25;5019886;28;20064;-81
2021/11/18 10:00:37;;;;;;;22.80;10.50;;;;;;;1.32;52.15;100115.56;5002263;28;20053;-82
2021/11/18 10:03:14;;;;;;;19.92;10.18;;;;;;;1.24;52.78;100104.19;5052437;28;20450;-83
2021/11/18 10:06:15;;;;;;;20.70;9.88;;;;;;;0.10;52.42;99890.28;5058849;28;20065;-82
2021/11/18 10:09:09;;;;;;;24.88;10.98;;;;;;;1.41;52.76;100091.91;5056076;28;20228;-81
2021/11/18 10:12:03;;;;;;;17.52;8.82;;;;;;;1.52;52.08;100090.59;5036417;28;20100;-81
2021/11/18 10:14:50;;;;;;;22.75;10.77;;;;;;;1.52;51.73;100090.59;5025914;28;20242;-80
2021/11/18 10:17:22;;;;;;;20.00;9.77;;;;;;;1.04;51.47;100018.09;5004434;28;20060;-83
2021/11/18 10:20:06;;;;;;;18.90;9.82;;;;;;;1.30;51.60;100068.50;5036014;28;20451;-81
2021/11/18 10:22:36;;;;;;;19.80;10.00;;;;;;;1.20;51.86;100052.81;5016384;28;20106;-81
2021/11/18 10:25:13;;;;;;;22.02;9.95;;;;;;;1.49;52.28;100072.53;5030255;28;20048;-80
2021/11/18 10:27:48;;;;;;;20.95;9.95;;;;;;;1.62;51.82;100066.97;5011005;28;20029;-83
2021/11/18 10:30:34;;;;;;;27.20;10.38;;;;;;;1.11;51.11;99974.72;5034057;28;20047;-80
2021/11/18 10:33:03;;;;;;;20.23;9.85;;;;;;;1.79;51.48;100048.66;5051661;28;20043;-84
2021/11/18 10:36:13;;;;;;;22.33;10.40;;;;;;;1.96;50.86;100056.88;5047917;28;20047;-82
2021/11/18 10:39:03;;;;;;;20.67;10.18;;;;;;;1.68;50.27;99989.31;5006592;28;20500;-83
2021/11/18 10:41:32;;;;;;;18.25;9.32;;;;;;;2.10;50.80;100016.22;5037744;28;21015;-80
2021/11/18 10:44:17;;;;;;;19.90;10.27;;;;;;;2.06;50.56;100027.22;5030379;28;20041;-83
2021/11/18 10:47:06;;;;;;;17.80;9.50;;;;;;;1.89;50.45;100025.03;5030372;28;20075;-81
2021/11/18 10:49:48;;;;;;;20.13;10.00;;;;;;;1.80;50.38;100020.50;5060118;28;20037;-83
2021/11/18 10:52:45;;;;;;;19.70;9.30;;;;;;;1.69;50.16;100019.28;5048466;28;20519;-79
2021/11/18 10:55:20;;;;;;;19.83;10.00;;;;;;;1.39;50.21;99991.88;5047038;28;20068;-80
2021/11/18 10:58:01;;;;;;;18.30;8.80;;;;;;;1.40;50.60;100009.00;5032732;28;20408;-79
2021/11/18 11:00:42;;;;;;;21.88;10.15;;;;;;;1.39;50.96;99991.88;5024073;28;20509;-79
2021/11/18 11:03:21;;;;;;;;;;;;;;;1.60;51.12;100008.75;5055876;28;20908;-81
2021/11/18 11:05:48;;;;;;;27.45;10.68;;;;;;;1.57;49.89;100006.09;5028340;28;19916;-81
2021/11/18 11:08:26;;;;;;;23.05;10.20;;;;;;;1.17;50.38;99954.41;5031075;28;20044;-81
2021/11/18 11:10:59;;;;;;;24.35;10.70;;;;;;;1.13;50.35;99950.88;5017863;28;20076;-83
2021/11/18 11:13:50;;;;;;;25.92;10.90;;;;;;;1.28;50.88;99972.69;5033569;28;20059;-80
2021/11/18 11:16:37;;;;;;;23.02;10.85;;;;;;;1.45;51.06;99986.91;5029738;28;20033;-82
2021/11/18 11:19:31;;;;;;;21.52;9.90;;;;;;;1.15;50.68;99949.25;5047624;28;20036;-83
2021/11/18 11:22:12;;;;;;;20.00;10.32;;;;;;;0.79;50.42;99888.28;5043228;28;20057;-82
2021/11/18 11:25:14;;;;;;;23.33;10.80;;;;;;;0.95;50.82;99940.91;5037259;28;20037;-81
2021/11/18 11:28:15;;;;;;;21.13;10.25;;;;;;;1.06;50.84;99972.00;5030136;28;20419;-82
2021/11/18 11:31:21;;;;;;;28.65;11.85;;;;;;;0.64;51.67;99918.53;5030597;28;20037;-81
2021/11/18 11:34:02;;;;;;;28.10;11.15;;;;;;;0.93;51.65;99968.19;4994288;28;20041;-78
2021/11/18 11:36:57;;;;;;;23.73;11.73;;;;;;;0.99;51.11;99964.97;5045876;28;20056;-80
2021/11/18 11:39:48;;;;;;;24.70;11.57;;;;;;;1.01;51.79;99958.16;4997181;28;20052;-81
2021/11/18 11:42:20;;;;;;;25.63;12.60;;;;;;;0.86;51.76;99949.16;5039704;28;20694;-80
2021/11/18 11:45:04;;;;;;;25.55;12.23;;;;;;;0.74;52.00;99946.22;5042572;28;20094;-80
2021/11/18 11:47:55;;;;;;;25.50;11.98;;;;;;;0.79;52.38;99942.09;5005792;28;20081;-79
2021/11/18 11:50:52;;;;;;;24.70;12.55;;;;;;;0.81;52.35;99937.91;5025547;28;20055;-83